Wilmington, North Carolina
Current Conditions -  °F | °C
As of 6:53 PM on Monday 24 Nov 2014 (Local Time) from KILM Reporting Station
Haze Haze  
Wind Chill: 69°   Ceiling: 12000
Heat Index: 69°   Visibility: 6mi
Dew Point: 68°   Wind: 8mph
Humidity: 96%   Direction: 210°SSW
Pressure: 29.92"   Gusts: NA
Location:  34.24°N, 77.94°W
Report Text: KILM 242353Z 21007KT 6SM BR SCT033 SCT055 BKN120 21/20 A2992 RMK AO2 SLP132 60000 T02060200 10228 20206 53016
Loading
Personal Weather Stations






























Interactive Weather Map New forecast layout! Learn more

10-Day Weather Forecast

Advertisements
Track Severe Weather on mobile